Time;durP1;ratioP1;P1;durP2;ratioP2;P2;SDS_P1;SDS_P2;PMS_P1;PMS_P2;Temp;Humidity;BMP_temperature;BMP_pressure;BME280_temperature;BME280_humidity;BME280_pressure;Samples;Min_cycle;Max_cycle;Signal;HPM_P1;HPM_P2
2024/02/16 00:00:44;;;;;;;2.20;1.20;;;13.70;99.90;;;;;;5032116;28;20087;-49
2024/02/16 00:03:10;;;;;;;1.70;1.15;;;13.70;99.90;;;;;;5032629;28;20025;-47
2024/02/16 00:05:36;;;;;;;1.42;0.70;;;13.70;99.90;;;;;;5032162;28;20021;-49
2024/02/16 00:08:03;;;;;;;4.00;1.05;;;13.70;99.90;;;;;;5024414;28;20068;-49
2024/02/16 00:10:28;;;;;;;2.17;0.75;;;13.70;99.90;;;;;;5026071;28;20029;-49
2024/02/16 00:12:54;;;;;;;1.27;0.80;;;13.70;99.90;;;;;;5030638;28;20060;-51
2024/02/16 00:15:20;;;;;;;3.42;1.20;;;13.80;99.90;;;;;;5031851;28;20068;-48
2024/02/16 00:17:45;;;;;;;2.47;0.93;;;13.80;99.90;;;;;;5032048;28;20117;-50
2024/02/16 00:20:14;;;;;;;3.35;1.38;;;13.80;99.90;;;;;;5031351;28;20032;-48
2024/02/16 00:22:40;;;;;;;3.28;0.90;;;13.80;99.90;;;;;;5031812;28;20029;-51
2024/02/16 00:25:07;;;;;;;2.60;1.02;;;13.80;99.90;;;;;;5031618;28;20021;-48
2024/02/16 00:27:32;;;;;;;2.72;0.98;;;13.80;99.90;;;;;;5030951;28;20104;-49
2024/02/16 00:29:58;;;;;;;3.08;1.00;;;13.80;99.90;;;;;;5031374;28;20136;-48
2024/02/16 00:32:29;;;;;;;3.35;1.20;;;13.80;99.90;;;;;;5025344;28;20033;-51
2024/02/16 00:34:55;;;;;;;2.25;0.90;;;13.80;99.90;;;;;;5030554;28;20029;-50
2024/02/16 00:37:21;;;;;;;1.92;0.98;;;13.90;99.90;;;;;;5031661;28;20044;-50
2024/02/16 00:39:46;;;;;;;1.13;0.63;;;13.90;99.90;;;;;;5031106;28;20398;-47
2024/02/16 00:42:12;;;;;;;1.73;0.80;;;13.90;99.90;;;;;;5031426;28;20017;-47
2024/02/16 00:44:38;;;;;;;3.25;1.02;;;13.90;99.90;;;;;;5031415;28;20467;-48
2024/02/16 00:47:09;;;;;;;1.50;0.80;;;13.90;99.90;;;;;;5031257;28;20040;-48
2024/02/16 00:49:35;;;;;;;4.57;1.42;;;13.80;99.90;;;;;;5031256;28;20025;-50
2024/02/16 00:52:01;;;;;;;3.58;0.80;;;13.80;99.90;;;;;;5031344;28;20022;-51
2024/02/16 00:54:27;;;;;;;4.60;1.30;;;13.80;99.90;;;;;;5031195;28;20042;-50
2024/02/16 00:56:54;;;;;;;4.30;0.90;;;13.80;99.90;;;;;;5031097;28;20402;-50
2024/02/16 00:59:20;;;;;;;4.25;1.50;;;13.80;99.90;;;;;;5031069;28;20037;-49
2024/02/16 01:01:46;;;;;;;3.08;1.00;;;13.80;99.90;;;;;;5031190;28;20033;-49
2024/02/16 01:04:12;;;;;;;2.83;1.00;;;13.80;99.90;;;;;;5031124;28;20025;-50
2024/02/16 01:06:38;;;;;;;5.57;1.23;;;13.80;99.90;;;;;;5023067;28;20057;-50
2024/02/16 01:09:03;;;;;;;2.17;0.73;;;13.80;99.90;;;;;;5030652;28;20600;-53
2024/02/16 01:11:29;;;;;;;2.33;0.98;;;13.80;99.90;;;;;;5031113;28;20113;-52
2024/02/16 01:13:55;;;;;;;3.03;1.00;;;13.80;99.90;;;;;;5030875;28;20112;-49
2024/02/16 01:16:21;;;;;;;2.63;1.10;;;13.80;99.90;;;;;;5030921;28;20405;-49
2024/02/16 01:18:47;;;;;;;2.38;0.98;;;13.80;99.90;;;;;;5030857;28;20033;-49
2024/02/16 01:21:12;;;;;;;2.17;1.00;;;13.80;99.90;;;;;;5030705;28;20036;-49
2024/02/16 01:23:38;;;;;;;1.58;0.90;;;13.80;99.90;;;;;;5030709;28;20041;-48
2024/02/16 01:26:03;;;;;;;2.67;1.10;;;13.80;99.90;;;;;;5027602;28;20072;-48
2024/02/16 01:28:29;;;;;;;2.78;1.02;;;13.80;99.90;;;;;;5025495;28;20025;-50
2024/02/16 01:30:56;;;;;;;1.88;0.93;;;13.80;99.90;;;;;;5030512;28;20034;-49
2024/02/16 01:33:22;;;;;;;2.15;1.15;;;13.80;99.90;;;;;;5030723;28;20056;-47
2024/02/16 01:35:47;;;;;;;2.03;1.13;;;13.80;99.90;;;;;;5030683;28;20106;-48
2024/02/16 01:38:13;;;;;;;2.22;1.10;;;13.90;99.90;;;;;;5030480;28;20037;-48
2024/02/16 01:40:40;;;;;;;2.50;0.93;;;13.90;99.90;;;;;;5030236;28;20055;-48
2024/02/16 01:43:05;;;;;;;2.65;1.10;;;13.90;99.90;;;;;;5030397;28;20025;-49
2024/02/16 01:45:31;;;;;;;3.00;1.08;;;13.90;99.90;;;;;;5030280;28;20366;-47
2024/02/16 01:47:57;;;;;;;2.58;0.88;;;13.90;99.90;;;;;;5030509;28;20358;-49
2024/02/16 01:50:23;;;;;;;2.30;1.00;;;13.90;99.90;;;;;;5028634;28;20129;-50
2024/02/16 01:52:49;;;;;;;2.70;0.98;;;13.90;99.90;;;;;;5030404;28;20037;-51
2024/02/16 01:55:16;;;;;;;3.10;1.10;;;13.90;99.90;;;;;;5030154;28;20029;-50
2024/02/16 01:57:47;;;;;;;1.88;1.00;;;13.90;99.90;;;;;;5029184;28;20029;-52
2024/02/16 02:00:17;;;;;;;2.53;0.98;;;13.90;99.90;;;;;;5030111;28;20037;-48
2024/02/16 02:02:46;;;;;;;2.25;1.00;;;13.90;99.90;;;;;;5030599;28;20044;-49
2024/02/16 02:05:14;;;;;;;3.42;1.17;;;13.90;99.90;;;;;;5030374;28;20040;-47
2024/02/16 02:07:40;;;;;;;3.63;1.30;;;13.90;99.90;;;;;;5014782;28;20034;-48
2024/02/16 02:10:06;;;;;;;1.67;0.70;;;13.90;99.90;;;;;;5029362;28;20082;-48
2024/02/16 02:12:32;;;;;;;1.77;0.80;;;13.80;99.90;;;;;;5030357;28;20025;-48
2024/02/16 02:14:58;;;;;;;2.33;1.00;;;13.90;99.90;;;;;;5028443;28;20044;-50
2024/02/16 02:17:23;;;;;;;2.92;0.90;;;13.90;99.90;;;;;;5025195;28;20053;-48
2024/02/16 02:19:49;;;;;;;1.92;0.93;;;13.90;99.90;;;;;;5026735;28;20397;-48
2024/02/16 02:22:21;;;;;;;4.03;1.13;;;13.90;99.90;;;;;;5029926;28;20063;-48
2024/02/16 02:24:48;;;;;;;3.88;1.45;;;13.90;99.90;;;;;;5029816;28;20057;-47
2024/02/16 02:27:15;;;;;;;2.92;1.02;;;13.90;99.90;;;;;;5030093;28;20056;-49
2024/02/16 02:29:41;;;;;;;2.95;1.02;;;13.90;99.90;;;;;;5014349;28;20030;-49
2024/02/16 02:32:08;;;;;;;2.67;0.90;;;13.90;99.90;;;;;;5029441;28;20039;-49
2024/02/16 02:34:34;;;;;;;3.55;1.30;;;13.90;99.90;;;;;;5028578;28;20170;-48
2024/02/16 02:36:59;;;;;;;2.83;1.30;;;13.90;99.90;;;;;;5029783;28;20037;-47
2024/02/16 02:39:25;;;;;;;3.30;1.17;;;13.90;99.90;;;;;;5029847;28;20438;-47
2024/02/16 02:41:51;;;;;;;3.03;1.10;;;13.80;99.90;;;;;;5029931;28;20040;-47
2024/02/16 02:44:17;;;;;;;3.00;1.00;;;13.80;99.90;;;;;;5029819;28;20124;-49
2024/02/16 02:46:43;;;;;;;3.60;1.10;;;13.80;99.90;;;;;;5030030;28;20034;-48
2024/02/16 02:49:08;;;;;;;3.13;0.95;;;13.80;99.90;;;;;;5021682;28;20033;-50
2024/02/16 02:51:34;;;;;;;1.33;0.90;;;13.80;99.90;;;;;;5032388;28;20029;-49
2024/02/16 02:53:59;;;;;;;1.55;0.82;;;13.80;99.90;;;;;;5033604;28;20069;-49
2024/02/16 02:56:25;;;;;;;2.70;1.05;;;13.90;99.90;;;;;;5033612;28;20044;-48
2024/02/16 02:58:50;;;;;;;3.50;1.33;;;13.80;99.90;;;;;;5028811;28;20061;-49
2024/02/16 03:01:19;;;;;;;2.85;1.00;;;13.80;99.90;;;;;;5032030;28;20033;-50
2024/02/16 03:03:45;;;;;;;2.65;1.02;;;13.70;99.90;;;;;;5033094;28;20033;-48
2024/02/16 03:06:10;;;;;;;4.32;1.20;;;13.70;99.90;;;;;;5033199;28;20033;-47
2024/02/16 03:08:36;;;;;;;2.92;1.15;;;13.70;99.90;;;;;;5032628;28;20033;-47
2024/02/16 03:11:03;;;;;;;2.03;0.95;;;13.70;99.90;;;;;;5033042;28;20025;-52
2024/02/16 03:13:29;;;;;;;7.53;2.25;;;13.70;99.90;;;;;;5033217;28;20109;-48
2024/02/16 03:15:55;;;;;;;3.00;1.10;;;13.70;99.90;;;;;;5033037;28;20498;-48
2024/02/16 03:18:21;;;;;;;2.25;0.93;;;13.70;99.90;;;;;;5033024;28;20546;-50
2024/02/16 03:20:48;;;;;;;2.40;1.08;;;13.70;99.90;;;;;;5033007;28;20397;-51
2024/02/16 03:23:14;;;;;;;3.42;1.55;;;13.70;99.90;;;;;;5032984;28;20033;-48
2024/02/16 03:25:40;;;;;;;1.77;0.98;;;13.70;99.90;;;;;;5032700;28;20045;-49
2024/02/16 03:28:10;;;;;;;2.22;1.10;;;13.70;99.90;;;;;;5032827;28;20096;-49
2024/02/16 03:30:35;;;;;;;3.47;1.48;;;13.70;99.90;;;;;;5032411;28;20033;-50
2024/02/16 03:33:01;;;;;;;2.05;1.05;;;13.70;99.90;;;;;;5032575;28;20096;-50
2024/02/16 03:35:27;;;;;;;3.22;1.00;;;13.70;99.90;;;;;;5032580;28;20131;-51
2024/02/16 03:37:53;;;;;;;4.50;1.00;;;13.60;99.90;;;;;;5032748;28;20044;-48
2024/02/16 03:40:18;;;;;;;2.53;1.10;;;13.60;99.90;;;;;;5032405;28;20033;-47
2024/02/16 03:42:44;;;;;;;2.28;0.90;;;13.60;99.90;;;;;;5032633;28;20098;-49
2024/02/16 03:45:11;;;;;;;2.67;1.13;;;13.70;99.90;;;;;;5032415;28;20032;-50
2024/02/16 03:47:36;;;;;;;2.17;1.00;;;13.70;99.90;;;;;;5032392;28;20112;-52
2024/02/16 03:50:03;;;;;;;2.85;1.17;;;13.70;99.90;;;;;;5024020;28;20109;-48
2024/02/16 03:52:29;;;;;;;1.67;0.80;;;13.70;99.90;;;;;;5032498;28;20113;-50
2024/02/16 03:54:54;;;;;;;4.03;1.20;;;13.70;99.90;;;;;;5032236;28;20382;-49
2024/02/16 03:57:20;;;;;;;4.43;1.35;;;13.70;99.90;;;;;;5023920;28;20078;-50
2024/02/16 03:59:45;;;;;;;4.35;1.20;;;13.70;99.90;;;;;;5025125;28;20029;-48
2024/02/16 04:02:15;;;;;;;3.05;1.10;;;13.80;99.90;;;;;;5029895;28;20538;-48
2024/02/16 04:04:41;;;;;;;3.42;0.88;;;13.70;99.90;;;;;;5032061;28;20040;-49
2024/02/16 04:07:06;;;;;;;2.08;1.00;;;13.70;99.90;;;;;;5032144;28;20483;-51
2024/02/16 04:09:33;;;;;;;2.45;1.10;;;13.70;99.90;;;;;;5030984;28;20553;-48
2024/02/16 04:11:58;;;;;;;2.95;1.30;;;13.70;99.90;;;;;;5031420;28;20029;-49
2024/02/16 04:14:24;;;;;;;2.78;0.98;;;13.70;99.90;;;;;;5024430;28;20051;-47
2024/02/16 04:16:50;;;;;;;2.90;1.02;;;13.70;99.90;;;;;;5032127;28;20119;-48
2024/02/16 04:19:15;;;;;;;2.38;1.10;;;13.70;99.90;;;;;;5031761;28;20033;-48
2024/02/16 04:21:41;;;;;;;2.63;1.33;;;13.70;99.90;;;;;;5031742;28;20493;-52
2024/02/16 04:24:07;;;;;;;2.38;1.08;;;13.70;99.90;;;;;;5031586;28;20087;-49
2024/02/16 04:26:34;;;;;;;3.15;1.20;;;13.70;99.90;;;;;;5031699;28;20550;-49
2024/02/16 04:29:00;;;;;;;2.92;1.35;;;13.70;99.90;;;;;;5031133;28;20117;-48
2024/02/16 04:31:25;;;;;;;7.10;1.23;;;13.70;99.90;;;;;;5015685;28;20051;-50
2024/02/16 04:33:51;;;;;;;4.35;1.25;;;13.70;99.90;;;;;;5031647;28;20423;-47
2024/02/16 04:36:17;;;;;;;2.47;1.20;;;13.70;99.90;;;;;;5028969;28;20045;-50
2024/02/16 04:38:43;;;;;;;2.10;1.10;;;13.70;99.90;;;;;;5031588;28;20040;-50
2024/02/16 04:41:08;;;;;;;2.33;1.02;;;13.70;99.90;;;;;;5031373;28;20025;-50
2024/02/16 04:43:34;;;;;;;3.20;1.27;;;13.70;99.90;;;;;;5031390;28;20478;-52
2024/02/16 04:46:00;;;;;;;2.15;1.10;;;13.70;99.90;;;;;;5031101;28;20057;-47
2024/02/16 04:48:26;;;;;;;4.55;1.13;;;13.70;99.90;;;;;;5027651;28;20026;-50
2024/02/16 04:50:51;;;;;;;2.35;1.02;;;13.60;99.90;;;;;;5026600;28;20064;-50
2024/02/16 04:53:17;;;;;;;4.95;1.30;;;13.60;99.90;;;;;;5031043;28;20482;-47
2024/02/16 04:55:43;;;;;;;2.58;1.20;;;13.60;99.90;;;;;;5020444;28;20041;-48
2024/02/16 04:58:09;;;;;;;1.73;1.10;;;13.60;99.90;;;;;;5022693;28;20025;-47
2024/02/16 05:00:36;;;;;;;4.63;1.13;;;13.60;99.90;;;;;;5030611;28;20059;-47
2024/02/16 05:03:02;;;;;;;3.05;1.25;;;13.50;99.90;;;;;;5030962;28;20348;-49
2024/02/16 05:05:28;;;;;;;1.85;1.00;;;13.60;99.90;;;;;;5023001;28;20371;-51
2024/02/16 05:07:54;;;;;;;3.78;1.00;;;13.50;99.90;;;;;;5031337;28;20064;-49
2024/02/16 05:10:19;;;;;;;5.50;1.20;;;13.50;99.90;;;;;;5030562;28;20061;-50
2024/02/16 05:12:45;;;;;;;4.18;1.10;;;13.50;99.90;;;;;;5030806;28;20132;-49
2024/02/16 05:15:14;;;;;;;2.42;1.05;;;13.50;99.90;;;;;;5030502;28;20159;-51
2024/02/16 05:17:40;;;;;;;2.83;1.23;;;13.40;99.90;;;;;;5031183;28;20028;-49
2024/02/16 05:20:15;;;;;;;2.10;1.02;;;13.50;99.90;;;;;;5030513;28;20021;-48
2024/02/16 05:22:45;;;;;;;5.97;1.35;;;13.60;99.90;;;;;;5030956;28;20097;-53
2024/02/16 05:25:15;;;;;;;2.17;1.63;;;13.50;99.90;;;;;;5020834;28;20029;-50
2024/02/16 05:27:41;;;;;;;3.97;1.40;;;13.50;99.90;;;;;;5024842;28;20458;-49
2024/02/16 05:30:09;;;;;;;1.95;1.05;;;13.50;99.90;;;;;;5030453;28;20449;-48
2024/02/16 05:32:36;;;;;;;1.95;0.90;;;13.50;99.90;;;;;;5030943;28;20499;-48
2024/02/16 05:35:16;;;;;;;4.82;1.10;;;13.40;99.90;;;;;;5030340;28;20052;-48
2024/02/16 05:37:50;;;;;;;2.85;1.20;;;13.40;99.90;;;;;;5030783;28;20150;-51
2024/02/16 05:40:29;;;;;;;3.80;1.27;;;13.40;99.90;;;;;;5030028;28;20616;-50
2024/02/16 05:42:59;;;;;;;2.97;1.38;;;13.40;99.90;;;;;;5023883;28;20033;-50
2024/02/16 05:45:28;;;;;;;2.97;0.95;;;13.30;99.90;;;;;;5021615;28;20033;-48
2024/02/16 05:47:53;;;;;;;4.50;1.35;;;13.30;99.90;;;;;;5024046;28;20130;-48
2024/02/16 05:50:21;;;;;;;4.82;1.35;;;13.30;99.90;;;;;;5019725;28;20204;-50
2024/02/16 05:52:46;;;;;;;2.90;1.30;;;13.30;99.90;;;;;;5020516;28;20134;-49
2024/02/16 05:55:13;;;;;;;2.95;1.38;;;13.30;99.90;;;;;;5027294;28;20048;-49
2024/02/16 05:57:38;;;;;;;3.28;1.02;;;13.30;99.90;;;;;;5025120;28;20013;-48
2024/02/16 06:00:05;;;;;;;2.42;1.20;;;13.30;99.90;;;;;;5024618;28;20467;-50
2024/02/16 06:02:32;;;;;;;2.70;1.25;;;13.20;99.90;;;;;;5016157;28;20100;-49
2024/02/16 06:04:58;;;;;;;6.03;1.35;;;13.20;99.90;;;;;;5013484;28;20057;-48
2024/02/16 06:07:23;;;;;;;4.13;1.23;;;13.20;99.90;;;;;;5015972;28;20204;-50
2024/02/16 06:09:49;;;;;;;4.30;1.40;;;13.20;99.90;;;;;;5020567;28;20029;-48
2024/02/16 06:12:15;;;;;;;3.05;1.42;;;13.20;99.90;;;;;;5014046;28;20038;-48
2024/02/16 06:14:42;;;;;;;5.55;1.50;;;13.20;99.90;;;;;;5016184;28;20347;-48
2024/02/16 06:17:08;;;;;;;4.78;1.38;;;13.30;99.90;;;;;;5030688;28;20033;-48
2024/02/16 06:19:33;;;;;;;3.00;1.40;;;13.30;99.90;;;;;;5026901;28;20128;-49
2024/02/16 06:21:59;;;;;;;3.33;1.20;;;13.30;99.90;;;;;;5027489;28;20032;-50
2024/02/16 06:24:25;;;;;;;1.95;1.10;;;13.20;99.90;;;;;;5031113;28;20060;-51
2024/02/16 06:26:54;;;;;;;4.13;1.50;;;13.30;99.90;;;;;;5035095;28;20033;-47
2024/02/16 06:29:20;;;;;;;3.97;1.50;;;13.30;99.90;;;;;;5027227;28;20042;-48
2024/02/16 06:31:50;;;;;;;2.92;1.20;;;13.30;99.90;;;;;;5027319;28;20056;-48
2024/02/16 06:34:15;;;;;;;5.97;1.48;;;13.30;99.90;;;;;;5026236;28;20025;-48
2024/02/16 06:36:42;;;;;;;2.97;1.48;;;13.30;99.90;;;;;;5021081;28;20033;-52
2024/02/16 06:39:09;;;;;;;6.05;1.60;;;13.30;99.90;;;;;;5030493;28;20038;-49
2024/02/16 06:41:35;;;;;;;3.75;1.38;;;13.30;99.90;;;;;;5033843;28;20355;-50
2024/02/16 06:44:00;;;;;;;6.15;2.08;;;13.30;99.90;;;;;;5033589;28;20120;-49
2024/02/16 06:46:27;;;;;;;5.35;1.80;;;13.30;99.90;;;;;;5033583;28;20026;-47
2024/02/16 06:48:56;;;;;;;2.97;1.30;;;13.30;99.90;;;;;;5033600;28;20042;-50
2024/02/16 06:51:26;;;;;;;3.85;1.58;;;13.20;99.90;;;;;;5033323;28;20029;-49
2024/02/16 06:53:52;;;;;;;3.80;1.35;;;13.20;99.90;;;;;;5033525;28;20041;-48
2024/02/16 06:56:18;;;;;;;3.75;1.40;;;13.30;99.90;;;;;;5033424;28;20030;-52
2024/02/16 06:58:45;;;;;;;4.18;1.10;;;13.30;99.90;;;;;;5033583;28;20474;-50
2024/02/16 07:01:12;;;;;;;6.10;1.70;;;13.40;99.90;;;;;;5033483;28;20029;-48
2024/02/16 07:03:38;;;;;;;3.42;1.60;;;13.40;99.90;;;;;;5033973;28;20378;-48
2024/02/16 07:06:04;;;;;;;4.05;2.03;;;13.40;99.90;;;;;;5033605;28;20035;-52
2024/02/16 07:08:30;;;;;;;3.13;1.23;;;13.40;99.90;;;;;;5033514;28;20065;-53
2024/02/16 07:10:56;;;;;;;3.20;1.65;;;13.40;99.90;;;;;;5027735;28;20076;-50
2024/02/16 07:13:22;;;;;;;3.33;1.50;;;13.40;99.90;;;;;;5021929;28;20164;-47
2024/02/16 07:15:48;;;;;;;3.67;1.48;;;13.50;99.90;;;;;;5026878;28;20367;-51
2024/02/16 07:18:15;;;;;;;3.65;1.40;;;13.40;99.90;;;;;;5033221;28;20040;-50
2024/02/16 07:20:40;;;;;;;2.63;1.25;;;13.40;99.90;;;;;;5033067;28;20240;-52
2024/02/16 07:23:06;;;;;;;3.40;1.23;;;13.40;99.90;;;;;;5031838;28;20564;-52
2024/02/16 07:25:32;;;;;;;2.72;1.30;;;13.40;99.90;;;;;;5032949;28;20033;-52
2024/02/16 07:27:57;;;;;;;5.13;1.45;;;13.50;99.90;;;;;;5033249;28;20480;-48
2024/02/16 07:30:23;;;;;;;4.47;1.35;;;13.60;99.90;;;;;;5031263;28;20083;-48
2024/02/16 07:32:52;;;;;;;3.85;1.25;;;13.60;99.90;;;;;;5031838;28;20139;-48
2024/02/16 07:35:18;;;;;;;3.25;1.20;;;13.60;99.90;;;;;;5032872;28;20021;-51
2024/02/16 07:37:44;;;;;;;2.03;1.10;;;13.70;99.90;;;;;;5032890;28;20032;-53
2024/02/16 07:40:10;;;;;;;2.45;1.20;;;13.70;99.90;;;;;;5032658;28;20451;-50
2024/02/16 07:42:42;;;;;;;3.65;1.73;;;13.80;99.90;;;;;;5033114;28;20100;-49
2024/02/16 07:45:09;;;;;;;2.40;1.40;;;13.80;99.90;;;;;;5032388;28;20445;-54
2024/02/16 07:47:35;;;;;;;4.00;1.73;;;13.90;99.90;;;;;;5029245;28;20094;-48
2024/02/16 07:50:01;;;;;;;5.20;1.35;;;14.00;99.90;;;;;;5008859;28;20117;-51
2024/02/16 07:52:26;;;;;;;4.50;1.50;;;14.00;99.90;;;;;;5014506;28;20124;-52
2024/02/16 07:54:52;;;;;;;4.30;1.40;;;14.10;99.90;;;;;;5010947;28;20030;-52
2024/02/16 07:57:18;;;;;;;3.83;1.60;;;14.20;99.90;;;;;;5012535;28;20137;-50
2024/02/16 07:59:43;;;;;;;5.45;1.83;;;14.20;99.90;;;;;;5031281;28;20068;-49
2024/02/16 08:02:09;;;;;;;2.42;1.10;;;14.30;99.90;;;;;;5031923;28;20049;-52
2024/02/16 08:04:35;;;;;;;4.93;1.70;;;14.30;99.90;;;;;;5032158;28;20037;-50
2024/02/16 08:07:01;;;;;;;3.45;1.30;;;14.40;99.90;;;;;;5032240;28;20044;-50
2024/02/16 08:09:27;;;;;;;4.10;1.98;;;14.40;99.90;;;;;;5030596;28;20501;-52
2024/02/16 08:11:53;;;;;;;2.15;1.30;;;14.40;99.90;;;;;;5032120;28;20064;-52
2024/02/16 08:14:18;;;;;;;4.25;1.35;;;14.40;99.90;;;;;;5022346;28;20391;-51
2024/02/16 08:16:45;;;;;;;5.82;2.53;;;14.40;99.90;;;;;;5032281;28;20382;-49
2024/02/16 08:19:10;;;;;;;3.60;1.80;;;14.40;99.90;;;;;;5025752;28;20089;-55
2024/02/16 08:21:36;;;;;;;8.25;3.55;;;14.40;99.90;;;;;;5012840;28;20029;-51
2024/02/16 08:24:01;;;;;;;4.30;1.30;;;14.40;99.90;;;;;;5013911;28;20038;-51
2024/02/16 08:26:27;;;;;;;2.92;1.40;;;14.50;99.90;;;;;;5014289;28;20022;-48
2024/02/16 08:28:53;;;;;;;4.90;1.90;;;14.50;99.90;;;;;;5013521;28;20030;-50
2024/02/16 08:31:18;;;;;;;4.18;1.67;;;14.50;99.90;;;;;;5013838;28;20466;-51
2024/02/16 08:33:46;;;;;;;2.65;1.27;;;14.60;99.90;;;;;;5013561;28;20034;-49
2024/02/16 08:36:12;;;;;;;4.35;1.85;;;14.70;99.90;;;;;;5013594;28;20084;-52
2024/02/16 08:38:37;;;;;;;4.22;1.60;;;14.70;99.90;;;;;;5013328;28;20450;-51
2024/02/16 08:41:03;;;;;;;4.00;1.55;;;14.80;99.90;;;;;;5013334;28;20423;-49
2024/02/16 08:43:29;;;;;;;5.55;1.52;;;14.80;99.90;;;;;;5012935;28;20471;-52
2024/02/16 08:45:54;;;;;;;8.10;1.85;;;14.90;99.90;;;;;;5013323;28;20025;-49
2024/02/16 08:48:20;;;;;;;8.43;1.70;;;14.90;99.90;;;;;;5012567;28;20018;-49
2024/02/16 08:50:46;;;;;;;3.13;1.45;;;14.90;99.90;;;;;;5013140;28;20029;-49
2024/02/16 08:53:11;;;;;;;3.83;1.38;;;14.90;99.90;;;;;;5011867;28;20044;-51
2024/02/16 08:55:37;;;;;;;4.18;1.55;;;14.90;99.90;;;;;;5011867;28;20034;-50
2024/02/16 08:58:02;;;;;;;4.32;1.67;;;14.90;99.90;;;;;;5012823;28;20034;-52
2024/02/16 09:00:28;;;;;;;3.72;1.55;;;14.80;99.90;;;;;;5012919;28;20072;-51
2024/02/16 09:02:54;;;;;;;4.35;1.70;;;14.90;99.90;;;;;;5012964;28;20037;-49
2024/02/16 09:05:20;;;;;;;4.57;1.48;;;14.90;99.90;;;;;;5012887;28;20025;-52
2024/02/16 09:07:49;;;;;;;3.85;1.60;;;14.90;99.90;;;;;;5013240;28;20060;-49
2024/02/16 09:10:14;;;;;;;6.05;1.60;;;15.00;99.90;;;;;;5012543;28;20038;-48
2024/02/16 09:12:40;;;;;;;3.20;1.38;;;15.00;99.90;;;;;;5012875;28;20034;-51
2024/02/16 09:15:06;;;;;;;4.45;1.63;;;15.00;99.90;;;;;;5012667;28;20080;-53
2024/02/16 09:17:32;;;;;;;4.00;1.88;;;15.00;99.90;;;;;;5012769;28;20032;-50
2024/02/16 09:19:58;;;;;;;5.25;1.70;;;15.10;99.90;;;;;;5012234;28;20402;-49
2024/02/16 09:22:23;;;;;;;6.85;1.98;;;15.20;99.90;;;;;;5012580;28;20045;-52
2024/02/16 09:24:49;;;;;;;4.32;1.80;;;15.20;99.90;;;;;;5012797;28;20030;-49
2024/02/16 09:27:15;;;;;;;3.72;1.80;;;15.20;99.90;;;;;;5012533;28;20486;-50
2024/02/16 09:29:40;;;;;;;3.92;1.70;;;15.30;99.90;;;;;;5012237;28;20045;-51
2024/02/16 09:32:06;;;;;;;4.60;2.00;;;15.30;99.90;;;;;;5012389;28;20026;-52
2024/02/16 09:34:32;;;;;;;8.30;2.25;;;15.30;99.90;;;;;;5012359;28;20022;-50
2024/02/16 09:36:57;;;;;;;3.67;1.95;;;15.40;99.90;;;;;;5012332;28;20030;-52
2024/02/16 09:39:23;;;;;;;7.00;1.73;;;15.40;99.90;;;;;;5010990;28;20030;-52
2024/02/16 09:41:53;;;;;;;5.68;1.88;;;15.50;99.90;;;;;;5012270;28;20505;-49
2024/02/16 09:44:21;;;;;;;3.67;1.73;;;15.50;99.90;;;;;;5012220;28;20038;-50
2024/02/16 09:46:46;;;;;;;6.82;1.63;;;15.60;99.90;;;;;;5012271;28;20037;-49
2024/02/16 09:49:12;;;;;;;8.02;2.35;;;15.70;99.90;;;;;;5011931;28;20022;-48
2024/02/16 09:51:38;;;;;;;4.30;1.42;;;15.70;99.90;;;;;;5012228;28;20025;-54
2024/02/16 09:54:04;;;;;;;4.63;2.22;;;15.70;99.90;;;;;;5012138;28;20045;-52
2024/02/16 09:56:30;;;;;;;4.00;1.52;;;15.80;99.90;;;;;;5012341;28;20091;-51
2024/02/16 09:58:55;;;;;;;5.07;1.60;;;15.80;99.90;;;;;;5012099;28;20041;-52
2024/02/16 10:01:23;;;;;;;3.38;1.50;;;15.80;99.90;;;;;;5011305;28;20025;-52
2024/02/16 10:03:49;;;;;;;5.45;1.98;;;15.80;99.90;;;;;;5012086;28;20056;-53
2024/02/16 10:06:16;;;;;;;6.38;2.03;;;15.80;99.90;;;;;;5012038;28;20037;-52
2024/02/16 10:08:56;;;;;;;2.90;1.35;;;15.80;99.90;;;;;;5011877;28;20144;-49
2024/02/16 10:11:28;;;;;;;5.90;2.35;;;15.80;99.90;;;;;;5010566;28;20033;-52
2024/02/16 10:13:58;;;;;;;4.82;1.67;;;15.80;99.90;;;;;;5011943;28;20147;-50
2024/02/16 10:16:24;;;;;;;5.72;1.98;;;15.70;99.90;;;;;;5011860;28;20061;-48
2024/02/16 10:18:50;;;;;;;6.97;1.88;;;15.70;99.90;;;;;;5011655;28;20030;-51
2024/02/16 10:21:29;;;;;;;2.97;1.48;;;15.60;99.90;;;;;;5011700;28;20046;-52
2024/02/16 10:24:08;;;;;;;5.10;1.92;;;15.60;99.90;;;;;;5011632;28;20030;-48
2024/02/16 10:26:37;;;;;;;4.47;1.80;;;15.60;99.90;;;;;;5011819;28;20034;-52
2024/02/16 10:29:03;;;;;;;4.80;1.75;;;15.60;99.90;;;;;;5011482;28;20030;-48
2024/02/16 10:31:31;;;;;;;3.25;1.67;;;15.60;99.90;;;;;;5011771;28;20062;-53
2024/02/16 10:34:07;;;;;;;4.70;1.75;;;15.70;99.90;;;;;;5011728;28;20057;-48
2024/02/16 10:36:34;;;;;;;6.15;1.70;;;15.70;99.90;;;;;;5011840;28;20040;-51
2024/02/16 10:39:08;;;;;;;4.78;1.90;;;15.70;99.90;;;;;;5011786;28;20041;-51
2024/02/16 10:41:35;;;;;;;5.00;1.83;;;15.70;99.90;;;;;;5011966;28;20037;-53
2024/02/16 10:44:03;;;;;;;6.35;1.88;;;15.80;99.90;;;;;;5011611;28;20037;-52
2024/02/16 10:46:29;;;;;;;4.20;1.40;;;15.90;99.90;;;;;;5011839;28;20052;-49
2024/02/16 10:48:55;;;;;;;3.95;1.95;;;15.80;99.90;;;;;;5010281;28;20046;-48
2024/02/16 10:51:31;;;;;;;4.68;2.13;;;15.80;99.90;;;;;;5011871;28;20034;-52
2024/02/16 10:53:59;;;;;;;8.38;2.40;;;15.80;99.90;;;;;;5011616;28;20037;-49
2024/02/16 10:56:39;;;;;;;5.15;2.00;;;15.70;99.90;;;;;;5011808;28;20044;-49
2024/02/16 10:59:08;;;;;;;7.82;2.30;;;15.70;99.90;;;;;;5011258;28;20119;-50
2024/02/16 11:01:41;;;;;;;5.65;1.95;;;15.70;99.90;;;;;;5012173;28;20410;-48
2024/02/16 11:04:12;;;;;;;8.57;3.13;;;15.70;99.90;;;;;;5011549;28;20057;-51
2024/02/16 11:06:47;;;;;;;4.78;2.10;;;15.60;99.90;;;;;;5011599;28;20593;-52
2024/02/16 11:09:27;;;;;;;4.43;2.20;;;15.60;99.90;;;;;;5009962;28;20068;-48
2024/02/16 11:11:55;;;;;;;6.90;3.28;;;15.60;99.90;;;;;;5013055;28;20053;-49
2024/02/16 11:14:33;;;;;;;7.57;2.50;;;15.50;99.90;;;;;;5015114;28;20034;-50
2024/02/16 11:16:59;;;;;;;5.75;2.42;;;15.60;99.90;;;;;;5015102;28;20395;-49
2024/02/16 11:19:24;;;;;;;9.13;2.70;;;15.60;99.90;;;;;;5014643;28;20033;-50
2024/02/16 11:21:57;;;;;;;9.07;3.53;;;15.60;99.90;;;;;;5013774;28;20092;-52
2024/02/16 11:24:33;;;;;;;9.13;3.67;;;15.60;99.90;;;;;;5015089;28;20026;-50
2024/02/16 11:27:01;;;;;;;7.72;2.67;;;15.50;99.90;;;;;;5014962;28;20034;-51
2024/02/16 11:29:30;;;;;;;9.52;3.38;;;15.50;99.90;;;;;;5014545;28;20033;-50
2024/02/16 11:31:57;;;;;;;11.82;3.60;;;15.50;99.90;;;;;;5014468;28;20033;-49
2024/02/16 11:34:25;;;;;;;11.57;3.58;;;15.50;99.90;;;;;;5014654;28;20041;-51
2024/02/16 11:36:56;;;;;;;9.10;3.80;;;15.50;99.90;;;;;;5014778;28;20037;-48
2024/02/16 11:39:22;;;;;;;12.60;3.80;;;15.60;99.90;;;;;;5014292;28;20798;-49
2024/02/16 11:41:47;;;;;;;9.93;4.32;;;15.50;99.90;;;;;;5013217;28;20036;-49
2024/02/16 11:44:17;;;;;;;7.72;3.33;;;15.50;99.90;;;;;;5014259;28;20034;-49
2024/02/16 11:46:43;;;;;;;8.35;3.25;;;15.50;99.90;;;;;;5013104;28;20448;-52
2024/02/16 11:49:10;;;;;;;9.48;3.42;;;15.50;99.90;;;;;;5014043;28;20033;-50
2024/02/16 11:51:35;;;;;;;9.45;3.85;;;15.50;99.90;;;;;;5014466;28;20030;-51
2024/02/16 11:54:01;;;;;;;6.85;2.60;;;15.50;99.90;;;;;;5014061;28;20088;-50
2024/02/16 11:56:27;;;;;;;6.78;2.63;;;15.60;99.90;;;;;;5014369;28;20034;-49
2024/02/16 11:58:54;;;;;;;10.88;2.85;;;15.50;99.90;;;;;;5014191;28;20030;-48
2024/02/16 12:01:21;;;;;;;6.63;2.15;;;15.50;99.90;;;;;;5014617;28;20080;-48
2024/02/16 12:03:47;;;;;;;6.78;2.55;;;15.50;99.90;;;;;;5014279;28;20038;-50
2024/02/16 12:06:21;;;;;;;6.05;2.47;;;15.40;99.90;;;;;;5014757;28;20030;-49
2024/02/16 12:08:47;;;;;;;7.13;2.58;;;15.40;99.90;;;;;;5014617;28;20091;-50
2024/02/16 12:11:14;;;;;;;9.82;2.47;;;15.40;99.90;;;;;;5015731;28;20109;-50
2024/02/16 12:13:40;;;;;;;6.13;2.28;;;15.40;99.90;;;;;;5015678;28;20034;-53
2024/02/16 12:16:06;;;;;;;4.40;2.22;;;15.40;99.90;;;;;;5015077;28;20363;-50
2024/02/16 12:18:32;;;;;;;6.10;2.25;;;15.40;99.90;;;;;;5015428;28;20043;-49
2024/02/16 12:20:58;;;;;;;9.13;3.25;;;15.40;99.90;;;;;;5016432;28;20038;-49
2024/02/16 12:23:24;;;;;;;9.23;3.00;;;15.30;99.90;;;;;;5012631;28;20484;-52
2024/02/16 12:25:50;;;;;;;8.30;2.60;;;15.30;99.90;;;;;;5013583;28;20072;-48
2024/02/16 12:28:15;;;;;;;5.90;3.03;;;15.30;99.90;;;;;;5013371;28;20037;-52
2024/02/16 12:30:41;;;;;;;6.05;3.08;;;15.30;99.90;;;;;;5013180;28;20103;-52
2024/02/16 12:33:07;;;;;;;8.52;2.90;;;15.30;99.90;;;;;;5012160;28;20491;-51
2024/02/16 12:35:34;;;;;;;8.15;3.00;;;15.30;99.90;;;;;;4995888;28;20475;-52
2024/02/16 12:37:59;;;;;;;8.88;3.85;;;15.30;99.90;;;;;;5013496;28;20053;-52
2024/02/16 12:40:25;;;;;;;8.32;3.00;;;15.30;99.90;;;;;;5013059;28;20025;-50
2024/02/16 12:42:50;;;;;;;7.55;2.95;;;15.30;99.90;;;;;;5012999;28;20479;-50